sensor_id;sensor_type;location;lat;lon;timestamp;pressure;altitude;pressure_sealevel;temperature;humidity
76054;BME280;64752;48.870;9.082;2024-01-16T00:00:28;97382.28;;;-0.22;84.20
76054;BME280;64752;48.870;9.082;2024-01-16T00:02:53;97384.84;;;-0.27;82.89
76054;BME280;64752;48.870;9.082;2024-01-16T00:05:19;97393.31;;;-0.18;82.65
76054;BME280;64752;48.870;9.082;2024-01-16T00:07:44;97395.03;;;-0.28;82.43
76054;BME280;64752;48.870;9.082;2024-01-16T00:10:10;97388.22;;;-0.26;83.06
76054;BME280;64752;48.870;9.082;2024-01-16T00:12:36;97396.72;;;-0.23;82.83
76054;BME280;64752;48.870;9.082;2024-01-16T00:15:01;97390.78;;;-0.28;83.38
76054;BME280;64752;48.870;9.082;2024-01-16T00:17:26;97385.72;;;-0.29;84.18
76054;BME280;64752;48.870;9.082;2024-01-16T00:19:52;97388.28;;;-0.40;83.93
76054;BME280;64752;48.870;9.082;2024-01-16T00:22:17;97384.00;;;-0.33;83.68
76054;BME280;64752;48.870;9.082;2024-01-16T00:24:42;97392.50;;;-0.36;83.36
76054;BME280;64752;48.870;9.082;2024-01-16T00:27:08;97389.09;;;-0.41;84.41
76054;BME280;64752;48.870;9.082;2024-01-16T00:29:33;97383.16;;;-0.37;83.33
76054;BME280;64752;48.870;9.082;2024-01-16T00:31:58;97387.38;;;-0.30;85.12
76054;BME280;64752;48.870;9.082;2024-01-16T00:34:24;97379.78;;;-0.37;84.67
76054;BME280;64752;48.870;9.082;2024-01-16T00:36:49;97385.69;;;-0.37;84.35
76054;BME280;64752;48.870;9.082;2024-01-16T00:39:15;97379.78;;;-0.42;83.76
76054;BME280;64752;48.870;9.082;2024-01-16T00:41:40;97381.47;;;-0.38;84.16
76054;BME280;64752;48.870;9.082;2024-01-16T00:44:05;97384.03;;;-0.36;84.62
76054;BME280;64752;48.870;9.082;2024-01-16T00:46:31;97379.78;;;-0.37;84.48
76054;BME280;64752;48.870;9.082;2024-01-16T00:48:56;97376.34;;;-0.33;83.51
76054;BME280;64752;48.870;9.082;2024-01-16T00:51:21;97367.88;;;-0.34;84.31
76054;BME280;64752;48.870;9.082;2024-01-16T00:53:47;97369.59;;;-0.37;84.59
76054;BME280;64752;48.870;9.082;2024-01-16T00:56:12;97387.38;;;-0.31;84.41
76054;BME280;64752;48.870;9.082;2024-01-16T00:58:38;97382.31;;;-0.36;84.30
76054;BME280;64752;48.870;9.082;2024-01-16T01:01:04;97378.06;;;-0.34;84.93
76054;BME280;64752;48.870;9.082;2024-01-16T01:03:29;97374.69;;;-0.36;84.45
76054;BME280;64752;48.870;9.082;2024-01-16T01:05:55;97372.97;;;-0.34;84.15
76054;BME280;64752;48.870;9.082;2024-01-16T01:08:20;97383.16;;;-0.32;84.02
76054;BME280;64752;48.870;9.082;2024-01-16T01:10:46;97379.78;;;-0.34;84.77
76054;BME280;64752;48.870;9.082;2024-01-16T01:13:12;97378.06;;;-0.34;84.77
76054;BME280;64752;48.870;9.082;2024-01-16T01:15:38;97390.78;;;-0.35;84.96
76054;BME280;64752;48.870;9.082;2024-01-16T01:18:03;97392.47;;;-0.28;85.44
76054;BME280;64752;48.870;9.082;2024-01-16T01:20:29;97395.88;;;-0.35;84.80
76054;BME280;64752;48.870;9.082;2024-01-16T01:22:54;97403.53;;;-0.32;84.84
76054;BME280;64752;48.870;9.082;2024-01-16T01:25:20;97396.75;;;-0.35;84.75
76054;BME280;64752;48.870;9.082;2024-01-16T01:27:46;97402.69;;;-0.33;85.08
76054;BME280;64752;48.870;9.082;2024-01-16T01:30:12;97401.00;;;-0.40;85.58
76054;BME280;64752;48.870;9.082;2024-01-16T01:32:38;97400.97;;;-0.37;85.06
76054;BME280;64752;48.870;9.082;2024-01-16T01:35:05;97405.22;;;-0.41;85.31
76054;BME280;64752;48.870;9.082;2024-01-16T01:37:30;97404.41;;;-0.38;85.53
76054;BME280;64752;48.870;9.082;2024-01-16T01:39:55;97411.19;;;-0.45;85.12
76054;BME280;64752;48.870;9.082;2024-01-16T01:42:21;97415.41;;;-0.39;86.80
76054;BME280;64752;48.870;9.082;2024-01-16T01:44:47;97413.75;;;-0.51;86.18
76054;BME280;64752;48.870;9.082;2024-01-16T01:47:13;97415.44;;;-0.47;86.55
76054;BME280;64752;48.870;9.082;2024-01-16T01:49:38;97417.97;;;-0.45;86.06
76054;BME280;64752;48.870;9.082;2024-01-16T01:52:04;97422.22;;;-0.40;85.81
76054;BME280;64752;48.870;9.082;2024-01-16T01:54:31;97428.16;;;-0.37;85.91
76054;BME280;64752;48.870;9.082;2024-01-16T01:56:58;97423.06;;;-0.41;85.96
76054;BME280;64752;48.870;9.082;2024-01-16T01:59:24;97425.63;;;-0.45;85.62
76054;BME280;64752;48.870;9.082;2024-01-16T02:01:51;97421.38;;;-0.43;85.40
76054;BME280;64752;48.870;9.082;2024-01-16T02:04:20;97425.63;;;-0.44;85.26
76054;BME280;64752;48.870;9.082;2024-01-16T02:06:46;97425.59;;;-0.39;85.67
76054;BME280;64752;48.870;9.082;2024-01-16T02:09:12;97434.09;;;-0.43;85.45
76054;BME280;64752;48.870;9.082;2024-01-16T02:11:42;97428.19;;;-0.44;86.44
76054;BME280;64752;48.870;9.082;2024-01-16T02:14:08;97432.41;;;-0.49;86.32
76054;BME280;64752;48.870;9.082;2024-01-16T02:16:40;97433.25;;;-0.47;88.19
76054;BME280;64752;48.870;9.082;2024-01-16T02:19:06;97421.38;;;-0.54;86.23
76054;BME280;64752;48.870;9.082;2024-01-16T02:21:48;97433.28;;;-0.56;87.10
76054;BME280;64752;48.870;9.082;2024-01-16T02:24:15;97435.84;;;-0.61;86.94
76054;BME280;64752;48.870;9.082;2024-01-16T02:26:42;97423.09;;;-0.62;87.87
76054;BME280;64752;48.870;9.082;2024-01-16T02:29:07;97430.72;;;-0.65;86.90
76054;BME280;64752;48.870;9.082;2024-01-16T02:31:33;97422.22;;;-0.70;86.84
76054;BME280;64752;48.870;9.082;2024-01-16T02:33:59;97431.56;;;-0.80;87.36
76054;BME280;64752;48.870;9.082;2024-01-16T02:36:25;97418.84;;;-0.79;87.84
76054;BME280;64752;48.870;9.082;2024-01-16T02:38:51;97420.53;;;-0.85;89.09
76054;BME280;64752;48.870;9.082;2024-01-16T02:41:17;97422.25;;;-0.86;88.42
76054;BME280;64752;48.870;9.082;2024-01-16T02:43:43;97415.47;;;-0.90;87.87
76054;BME280;64752;48.870;9.082;2024-01-16T02:46:08;97423.06;;;-0.96;87.97
76054;BME280;64752;48.870;9.082;2024-01-16T02:48:34;97417.13;;;-0.98;89.48
76054;BME280;64752;48.870;9.082;2024-01-16T02:51:00;97425.59;;;-1.07;88.82
76054;BME280;64752;48.870;9.082;2024-01-16T02:53:25;97435.75;;;-1.16;89.21
76054;BME280;64752;48.870;9.082;2024-01-16T02:55:52;97443.38;;;-1.14;89.52
76054;BME280;64752;48.870;9.082;2024-01-16T02:58:18;97439.09;;;-1.31;90.43
76054;BME280;64752;48.870;9.082;2024-01-16T03:00:43;97445.88;;;-1.39;91.55
76054;BME280;64752;48.870;9.082;2024-01-16T03:03:08;97450.91;;;-1.53;91.30
76054;BME280;64752;48.870;9.082;2024-01-16T03:05:34;97442.38;;;-1.70;91.95
76054;BME280;64752;48.870;9.082;2024-01-16T03:07:59;97449.06;;;-1.88;93.65
76054;BME280;64752;48.870;9.082;2024-01-16T03:10:25;97455.00;;;-1.90;93.91
76054;BME280;64752;48.870;9.082;2024-01-16T03:12:51;97457.59;;;-1.78;94.13
76054;BME280;64752;48.870;9.082;2024-01-16T03:15:17;97456.78;;;-1.68;93.65
76054;BME280;64752;48.870;9.082;2024-01-16T03:17:42;97447.50;;;-1.63;92.93
76054;BME280;64752;48.870;9.082;2024-01-16T03:20:08;97443.19;;;-1.76;95.49
76054;BME280;64752;48.870;9.082;2024-01-16T03:22:34;97445.69;;;-1.85;93.75
76054;BME280;64752;48.870;9.082;2024-01-16T03:24:59;97448.16;;;-1.99;94.39
76054;BME280;64752;48.870;9.082;2024-01-16T03:27:25;97449.00;;;-1.99;94.49
76054;BME280;64752;48.870;9.082;2024-01-16T03:29:51;97451.50;;;-2.06;94.70
76054;BME280;64752;48.870;9.082;2024-01-16T03:32:17;97458.25;;;-2.08;94.61
76054;BME280;64752;48.870;9.082;2024-01-16T03:34:42;97459.84;;;-2.27;96.93
76054;BME280;64752;48.870;9.082;2024-01-16T03:37:08;97459.84;;;-2.29;96.31
76054;BME280;64752;48.870;9.082;2024-01-16T03:39:33;97463.22;;;-2.31;99.75
76054;BME280;64752;48.870;9.082;2024-01-16T03:41:59;97470.03;;;-2.26;96.17
76054;BME280;64752;48.870;9.082;2024-01-16T03:44:24;97472.44;;;-2.40;96.35
76054;BME280;64752;48.870;9.082;2024-01-16T03:46:49;97468.13;;;-2.52;98.04
76054;BME280;64752;48.870;9.082;2024-01-16T03:49:15;97461.38;;;-2.51;96.70
76054;BME280;64752;48.870;9.082;2024-01-16T03:51:40;97458.03;;;-2.45;96.10
76054;BME280;64752;48.870;9.082;2024-01-16T03:54:12;97449.50;;;-2.50;96.24
76054;BME280;64752;48.870;9.082;2024-01-16T03:56:39;97449.50;;;-2.55;96.54
76054;BME280;64752;48.870;9.082;2024-01-16T03:59:04;97445.13;;;-2.72;96.53
76054;BME280;64752;48.870;9.082;2024-01-16T04:01:33;97445.91;;;-2.80;97.71
76054;BME280;64752;48.870;9.082;2024-01-16T04:03:59;97444.22;;;-2.80;97.11
76054;BME280;64752;48.870;9.082;2024-01-16T04:06:24;97442.53;;;-2.78;98.44
76054;BME280;64752;48.870;9.082;2024-01-16T04:08:49;97445.06;;;-2.81;97.56
76054;BME280;64752;48.870;9.082;2024-01-16T04:11:15;97449.25;;;-2.86;97.56
76054;BME280;64752;48.870;9.082;2024-01-16T04:13:40;97450.84;;;-2.93;99.12
76054;BME280;64752;48.870;9.082;2024-01-16T04:16:06;97448.41;;;-2.82;98.56
76054;BME280;64752;48.870;9.082;2024-01-16T04:18:39;97444.16;;;-2.87;98.06
76054;BME280;64752;48.870;9.082;2024-01-16T04:21:08;97443.22;;;-2.94;97.23
76054;BME280;64752;48.870;9.082;2024-01-16T04:23:34;97449.97;;;-2.99;97.24
76054;BME280;64752;48.870;9.082;2024-01-16T04:26:00;97448.28;;;-2.97;98.28
76054;BME280;64752;48.870;9.082;2024-01-16T04:28:25;97447.41;;;-3.01;98.61
76054;BME280;64752;48.870;9.082;2024-01-16T04:30:51;97445.69;;;-3.05;98.21
76054;BME280;64752;48.870;9.082;2024-01-16T04:33:20;97444.81;;;-3.05;100.00
76054;BME280;64752;48.870;9.082;2024-01-16T04:35:45;97446.47;;;-3.11;97.75
76054;BME280;64752;48.870;9.082;2024-01-16T04:38:11;97437.09;;;-3.16;98.37
76054;BME280;64752;48.870;9.082;2024-01-16T04:40:36;97443.88;;;-3.15;98.79
76054;BME280;64752;48.870;9.082;2024-01-16T04:43:02;97443.97;;;-3.07;100.00
76054;BME280;64752;48.870;9.082;2024-01-16T04:45:28;97436.22;;;-3.21;98.41
76054;BME280;64752;48.870;9.082;2024-01-16T04:47:53;97438.66;;;-3.32;99.29
76054;BME280;64752;48.870;9.082;2024-01-16T04:50:19;97442.88;;;-3.33;99.73
76054;BME280;64752;48.870;9.082;2024-01-16T04:52:44;97443.69;;;-3.35;99.46
76054;BME280;64752;48.870;9.082;2024-01-16T04:55:10;97440.22;;;-3.43;99.13
76054;BME280;64752;48.870;9.082;2024-01-16T04:57:35;97441.91;;;-3.42;98.77
76054;BME280;64752;48.870;9.082;2024-01-16T05:00:01;97441.16;;;-3.35;98.74
76054;BME280;64752;48.870;9.082;2024-01-16T05:02:26;97443.66;;;-3.37;100.00
76054;BME280;64752;48.870;9.082;2024-01-16T05:04:51;97446.19;;;-3.38;100.00
76054;BME280;64752;48.870;9.082;2024-01-16T05:07:17;97439.25;;;-3.55;100.00
76054;BME280;64752;48.870;9.082;2024-01-16T05:09:44;97443.97;;;-3.85;100.00
76054;BME280;64752;48.870;9.082;2024-01-16T05:12:10;97437.13;;;-3.91;100.00
76054;BME280;64752;48.870;9.082;2024-01-16T05:14:35;97444.59;;;-3.99;100.00
76054;BME280;64752;48.870;9.082;2024-01-16T05:17:01;97442.22;;;-3.90;100.00
76054;BME280;64752;48.870;9.082;2024-01-16T05:19:26;97432.09;;;-3.90;100.00
76054;BME280;64752;48.870;9.082;2024-01-16T05:21:51;97432.19;;;-3.82;100.00
76054;BME280;64752;48.870;9.082;2024-01-16T05:24:19;97431.31;;;-3.84;100.00
76054;BME280;64752;48.870;9.082;2024-01-16T05:26:44;97426.13;;;-3.92;100.00
76054;BME280;64752;48.870;9.082;2024-01-16T05:29:10;97421.19;;;-3.82;100.00
76054;BME280;64752;48.870;9.082;2024-01-16T05:31:41;97417.13;;;-3.71;100.00
76054;BME280;64752;48.870;9.082;2024-01-16T05:34:07;97411.28;;;-3.62;100.00
76054;BME280;64752;48.870;9.082;2024-01-16T05:36:33;97415.59;;;-3.55;100.00
76054;BME280;64752;48.870;9.082;2024-01-16T05:38:58;97415.66;;;-3.51;99.35
76054;BME280;64752;48.870;9.082;2024-01-16T05:41:23;97409.03;;;-3.35;100.00
76054;BME280;64752;48.870;9.082;2024-01-16T05:43:49;97416.59;;;-3.41;99.41
76054;BME280;64752;48.870;9.082;2024-01-16T05:46:14;97411.53;;;-3.39;100.00
76054;BME280;64752;48.870;9.082;2024-01-16T05:48:40;97412.34;;;-3.42;100.00
76054;BME280;64752;48.870;9.082;2024-01-16T05:51:05;97397.16;;;-3.40;100.00
76054;BME280;64752;48.870;9.082;2024-01-16T05:53:30;97402.13;;;-3.50;100.00
76054;BME280;64752;48.870;9.082;2024-01-16T05:55:57;97406.41;;;-3.44;100.00
76054;BME280;64752;48.870;9.082;2024-01-16T05:58:22;97403.00;;;-3.47;100.00
76054;BME280;64752;48.870;9.082;2024-01-16T06:00:48;97392.81;;;-3.54;99.42
76054;BME280;64752;48.870;9.082;2024-01-16T06:03:13;97391.91;;;-3.57;99.14
76054;BME280;64752;48.870;9.082;2024-01-16T06:05:38;97402.00;;;-3.63;100.00
76054;BME280;64752;48.870;9.082;2024-01-16T06:08:04;97397.03;;;-3.54;98.89
76054;BME280;64752;48.870;9.082;2024-01-16T06:10:29;97391.94;;;-3.56;100.00
76054;BME280;64752;48.870;9.082;2024-01-16T06:12:55;97403.66;;;-3.67;100.00
76054;BME280;64752;48.870;9.082;2024-01-16T06:15:22;97394.22;;;-3.79;100.00
76054;BME280;64752;48.870;9.082;2024-01-16T06:17:48;97397.72;;;-3.69;100.00
76054;BME280;64752;48.870;9.082;2024-01-16T06:20:13;97400.22;;;-3.71;100.00
76054;BME280;64752;48.870;9.082;2024-01-16T06:22:39;97392.53;;;-3.77;100.00
76054;BME280;64752;48.870;9.082;2024-01-16T06:25:04;97391.56;;;-3.88;100.00
76054;BME280;64752;48.870;9.082;2024-01-16T06:27:30;97390.78;;;-3.85;100.00
76054;BME280;64752;48.870;9.082;2024-01-16T06:29:55;97387.47;;;-3.77;100.00
76054;BME280;64752;48.870;9.082;2024-01-16T06:32:20;97395.47;;;-3.43;100.00
76054;BME280;64752;48.870;9.082;2024-01-16T06:34:46;97401.25;;;-3.53;100.00
76054;BME280;64752;48.870;9.082;2024-01-16T06:37:11;97398.69;;;-3.56;100.00
76054;BME280;64752;48.870;9.082;2024-01-16T06:39:36;97408.06;;;-3.51;100.00
76054;BME280;64752;48.870;9.082;2024-01-16T06:42:03;97408.03;;;-3.52;100.00
76054;BME280;64752;48.870;9.082;2024-01-16T06:44:30;97402.97;;;-3.51;100.00
76054;BME280;64752;48.870;9.082;2024-01-16T06:46:55;97398.03;;;-3.37;99.75
76054;BME280;64752;48.870;9.082;2024-01-16T06:49:20;97401.63;;;-3.18;100.00
76054;BME280;64752;48.870;9.082;2024-01-16T06:51:46;97403.16;;;-3.32;99.64
76054;BME280;64752;48.870;9.082;2024-01-16T06:54:11;97401.53;;;-3.25;100.00
76054;BME280;64752;48.870;9.082;2024-01-16T06:56:36;97402.44;;;-3.19;99.75
76054;BME280;64752;48.870;9.082;2024-01-16T06:59:02;97406.66;;;-3.21;99.81
76054;BME280;64752;48.870;9.082;2024-01-16T07:01:28;97406.63;;;-3.24;97.15
76054;BME280;64752;48.870;9.082;2024-01-16T07:03:54;97400.78;;;-3.17;98.76
76054;BME280;64752;48.870;9.082;2024-01-16T07:06:19;97405.84;;;-3.17;97.38
76054;BME280;64752;48.870;9.082;2024-01-16T07:08:45;97404.97;;;-3.19;96.53
76054;BME280;64752;48.870;9.082;2024-01-16T07:11:10;97407.50;;;-3.19;95.31
76054;BME280;64752;48.870;9.082;2024-01-16T07:13:39;97402.41;;;-3.20;95.05
76054;BME280;64752;48.870;9.082;2024-01-16T07:16:04;97403.44;;;-3.03;95.19
76054;BME280;64752;48.870;9.082;2024-01-16T07:18:29;97399.16;;;-3.05;93.08
76054;BME280;64752;48.870;9.082;2024-01-16T07:20:55;97404.22;;;-3.07;92.71
76054;BME280;64752;48.870;9.082;2024-01-16T07:23:20;97400.06;;;-3.02;93.37
76054;BME280;64752;48.870;9.082;2024-01-16T07:25:45;97394.91;;;-3.10;91.86
76054;BME280;64752;48.870;9.082;2024-01-16T07:28:11;97400.03;;;-3.06;92.54
76054;BME280;64752;48.870;9.082;2024-01-16T07:30:36;97407.63;;;-3.08;91.80
76054;BME280;64752;48.870;9.082;2024-01-16T07:33:03;97404.28;;;-3.02;91.21
76054;BME280;64752;48.870;9.082;2024-01-16T07:35:28;97400.09;;;-2.97;90.73
76054;BME280;64752;48.870;9.082;2024-01-16T07:37:53;97398.41;;;-2.97;91.38
76054;BME280;64752;48.870;9.082;2024-01-16T07:40:19;97393.38;;;-2.91;91.04
76054;BME280;64752;48.870;9.082;2024-01-16T07:42:44;97395.91;;;-2.91;90.00
76054;BME280;64752;48.870;9.082;2024-01-16T07:45:10;97391.72;;;-2.90;89.51
76054;BME280;64752;48.870;9.082;2024-01-16T07:47:35;97399.31;;;-2.87;90.05
76054;BME280;64752;48.870;9.082;2024-01-16T07:50:01;97397.56;;;-2.97;90.10
76054;BME280;64752;48.870;9.082;2024-01-16T07:52:27;97398.47;;;-2.92;90.88
76054;BME280;64752;48.870;9.082;2024-01-16T07:54:53;97397.66;;;-2.88;89.99
76054;BME280;64752;48.870;9.082;2024-01-16T07:57:19;97396.81;;;-2.84;90.84
76054;BME280;64752;48.870;9.082;2024-01-16T07:59:44;97393.47;;;-2.80;89.38
76054;BME280;64752;48.870;9.082;2024-01-16T08:02:10;97401.16;;;-2.74;89.57
76054;BME280;64752;48.870;9.082;2024-01-16T08:04:35;97395.28;;;-2.63;89.00
76054;BME280;64752;48.870;9.082;2024-01-16T08:07:00;97398.72;;;-2.57;89.83
76054;BME280;64752;48.870;9.082;2024-01-16T08:09:26;97398.72;;;-2.58;87.00
76054;BME280;64752;48.870;9.082;2024-01-16T08:11:51;97397.16;;;-2.41;87.20
76054;BME280;64752;48.870;9.082;2024-01-16T08:14:17;97395.47;;;-2.39;85.68
76054;BME280;64752;48.870;9.082;2024-01-16T08:16:42;97392.16;;;-2.24;85.66
76054;BME280;64752;48.870;9.082;2024-01-16T08:19:08;97396.44;;;-2.14;84.92
76054;BME280;64752;48.870;9.082;2024-01-16T08:21:33;97393.09;;;-2.03;84.33
76054;BME280;64752;48.870;9.082;2024-01-16T08:23:58;97395.59;;;-2.14;83.23
76054;BME280;64752;48.870;9.082;2024-01-16T08:26:24;97406.69;;;-1.98;83.10
76054;BME280;64752;48.870;9.082;2024-01-16T08:28:49;97397.34;;;-1.99;82.63
76054;BME280;64752;48.870;9.082;2024-01-16T08:31:18;97401.59;;;-1.98;83.58
76054;BME280;64752;48.870;9.082;2024-01-16T08:33:44;97410.91;;;-1.97;83.23
76054;BME280;64752;48.870;9.082;2024-01-16T08:36:10;97410.97;;;-1.86;84.77
76054;BME280;64752;48.870;9.082;2024-01-16T08:38:35;97416.88;;;-1.86;82.99
76054;BME280;64752;48.870;9.082;2024-01-16T08:41:00;97412.75;;;-1.65;84.25
76054;BME280;64752;48.870;9.082;2024-01-16T08:43:26;97416.13;;;-1.66;84.13
76054;BME280;64752;48.870;9.082;2024-01-16T08:45:51;97420.28;;;-1.82;82.06
76054;BME280;64752;48.870;9.082;2024-01-16T08:48:16;97422.88;;;-1.73;81.50
76054;BME280;64752;48.870;9.082;2024-01-16T08:50:42;97425.44;;;-1.70;81.71
76054;BME280;64752;48.870;9.082;2024-01-16T08:53:07;97438.16;;;-1.64;81.94
76054;BME280;64752;48.870;9.082;2024-01-16T08:55:33;97428.88;;;-1.49;80.15
76054;BME280;64752;48.870;9.082;2024-01-16T08:57:58;97435.66;;;-1.45;79.83
76054;BME280;64752;48.870;9.082;2024-01-16T09:00:24;97432.31;;;-1.41;79.50
76054;BME280;64752;48.870;9.082;2024-01-16T09:02:49;97428.94;;;-1.31;79.25
76054;BME280;64752;48.870;9.082;2024-01-16T09:05:15;97430.69;;;-1.13;78.50
76054;BME280;64752;48.870;9.082;2024-01-16T09:07:41;97425.59;;;-1.04;78.90
76054;BME280;64752;48.870;9.082;2024-01-16T09:10:07;97423.09;;;-0.74;78.30
76054;BME280;64752;48.870;9.082;2024-01-16T09:12:33;97428.16;;;-0.50;79.37
76054;BME280;64752;48.870;9.082;2024-01-16T09:14:58;97426.47;;;-0.51;76.65
76054;BME280;64752;48.870;9.082;2024-01-16T09:17:24;97431.56;;;-0.63;76.13
76054;BME280;64752;48.870;9.082;2024-01-16T09:19:51;97429.84;;;-0.81;77.09
76054;BME280;64752;48.870;9.082;2024-01-16T09:22:16;97423.06;;;-1.04;76.88
76054;BME280;64752;48.870;9.082;2024-01-16T09:24:42;97429.00;;;-1.00;78.65
76054;BME280;64752;48.870;9.082;2024-01-16T09:27:07;97439.19;;;-1.08;76.13
76054;BME280;64752;48.870;9.082;2024-01-16T09:29:35;97439.19;;;-0.94;79.08
76054;BME280;64752;48.870;9.082;2024-01-16T09:32:00;97439.22;;;-0.86;76.66
76054;BME280;64752;48.870;9.082;2024-01-16T09:34:26;97441.75;;;-0.82;77.09
76054;BME280;64752;48.870;9.082;2024-01-16T09:36:51;97423.94;;;-0.74;75.73
76054;BME280;64752;48.870;9.082;2024-01-16T09:39:16;97433.25;;;-0.47;75.87
76054;BME280;64752;48.870;9.082;2024-01-16T09:41:42;97433.28;;;-0.81;76.39
76054;BME280;64752;48.870;9.082;2024-01-16T09:44:08;97429.88;;;-0.76;77.68
76054;BME280;64752;48.870;9.082;2024-01-16T09:46:34;97433.22;;;-0.22;75.15
76054;BME280;64752;48.870;9.082;2024-01-16T09:49:02;97435.81;;;-0.37;75.46
76054;BME280;64752;48.870;9.082;2024-01-16T09:51:28;97426.44;;;-0.26;74.18
76054;BME280;64752;48.870;9.082;2024-01-16T09:53:54;97430.72;;;-0.33;74.06
76054;BME280;64752;48.870;9.082;2024-01-16T09:56:21;97428.03;;;0.16;72.56
76054;BME280;64752;48.870;9.082;2024-01-16T09:58:49;97433.16;;;0.12;74.61
76054;BME280;64752;48.870;9.082;2024-01-16T10:01:16;97419.53;;;0.21;73.05
76054;BME280;64752;48.870;9.082;2024-01-16T10:03:45;97424.56;;;0.34;72.91
76054;BME280;64752;48.870;9.082;2024-01-16T10:06:11;97422.97;;;0.15;71.99
76054;BME280;64752;48.870;9.082;2024-01-16T10:08:37;97422.78;;;0.58;72.55
76054;BME280;64752;48.870;9.082;2024-01-16T10:11:02;97412.47;;;0.81;71.61
76054;BME280;64752;48.870;9.082;2024-01-16T10:13:28;97412.34;;;0.96;71.48
76054;BME280;64752;48.870;9.082;2024-01-16T10:15:55;97414.28;;;0.53;72.27
76054;BME280;64752;48.870;9.082;2024-01-16T10:18:27;97411.25;;;1.30;71.62
76054;BME280;64752;48.870;9.082;2024-01-16T10:20:55;97398.38;;;1.44;71.46
76054;BME280;64752;48.870;9.082;2024-01-16T10:23:24;97400.13;;;1.39;71.67
76054;BME280;64752;48.870;9.082;2024-01-16T10:26:06;97391.94;;;0.92;69.82
76054;BME280;64752;48.870;9.082;2024-01-16T10:28:32;97391.84;;;1.10;70.32
76054;BME280;64752;48.870;9.082;2024-01-16T10:33:28;97376.81;;;1.72;67.52
76054;BME280;64752;48.870;9.082;2024-01-16T10:36:17;97369.63;;;2.07;67.75
76054;BME280;64752;48.870;9.082;2024-01-16T10:38:45;97374.53;;;2.22;66.91
76054;BME280;64752;48.870;9.082;2024-01-16T10:41:15;97374.50;;;2.27;65.03
76054;BME280;64752;48.870;9.082;2024-01-16T10:43:41;97379.84;;;3.31;62.94
76054;BME280;64752;48.870;9.082;2024-01-16T10:46:14;97380.25;;;4.04;59.41
76054;BME280;64752;48.870;9.082;2024-01-16T10:48:45;97384.00;;;5.46;58.00
76054;BME280;64752;48.870;9.082;2024-01-16T10:51:14;97388.81;;;6.85;52.80
76054;BME280;64752;48.870;9.082;2024-01-16T10:53:43;97385.69;;;7.83;51.13
76054;BME280;64752;48.870;9.082;2024-01-16T10:56:12;97368.75;;;8.94;49.50
76054;BME280;64752;48.870;9.082;2024-01-16T10:58:42;97361.97;;;9.14;46.22
76054;BME280;64752;48.870;9.082;2024-01-16T11:01:11;97357.88;;;8.64;47.44
76054;BME280;64752;48.870;9.082;2024-01-16T11:03:46;97361.13;;;8.45;47.14
76054;BME280;64752;48.870;9.082;2024-01-16T11:06:14;97345.66;;;9.75;47.50
76054;BME280;64752;48.870;9.082;2024-01-16T11:08:41;97347.69;;;9.25;43.61
76054;BME280;64752;48.870;9.082;2024-01-16T11:11:06;97354.69;;;9.23;44.58
76054;BME280;64752;48.870;9.082;2024-01-16T11:13:34;97346.53;;;10.15;44.40
76054;BME280;64752;48.870;9.082;2024-01-16T11:16:02;97340.09;;;9.63;44.23
76054;BME280;64752;48.870;9.082;2024-01-16T11:18:30;97339.41;;;8.73;44.34
76054;BME280;64752;48.870;9.082;2024-01-16T11:20:57;97337.47;;;8.09;45.71
76054;BME280;64752;48.870;9.082;2024-01-16T11:23:23;97327.13;;;8.33;46.81
76054;BME280;64752;48.870;9.082;2024-01-16T11:25:49;97328.41;;;7.20;46.73
76054;BME280;64752;48.870;9.082;2024-01-16T11:28:14;97313.97;;;6.89;47.52
76054;BME280;64752;48.870;9.082;2024-01-16T11:30:41;97322.84;;;6.79;47.94
76054;BME280;64752;48.870;9.082;2024-01-16T11:35:57;97310.09;;;7.80;45.64
76054;BME280;64752;48.870;9.082;2024-01-16T11:38:24;97298.53;;;9.25;44.10
76054;BME280;64752;48.870;9.082;2024-01-16T11:40:55;97295.41;;;8.29;42.46
76054;BME280;64752;48.870;9.082;2024-01-16T11:45:58;97284.38;;;9.94;41.45
76054;BME280;64752;48.870;9.082;2024-01-16T11:48:24;97278.88;;;9.21;41.16
76054;BME280;64752;48.870;9.082;2024-01-16T11:50:49;97281.59;;;10.18;39.97
76054;BME280;64752;48.870;9.082;2024-01-16T11:53:34;97272.88;;;9.62;41.02
76054;BME280;64752;48.870;9.082;2024-01-16T12:00:53;97264.19;;;9.01;40.03
76054;BME280;64752;48.870;9.082;2024-01-16T12:03:21;97263.66;;;10.34;38.07
76054;BME280;64752;48.870;9.082;2024-01-16T12:05:59;97266.94;;;10.37;38.01
76054;BME280;64752;48.870;9.082;2024-01-16T12:08:25;97254.66;;;9.02;39.79
76054;BME280;64752;48.870;9.082;2024-01-16T12:10:51;97249.69;;;9.59;39.24
76054;BME280;64752;48.870;9.082;2024-01-16T12:13:16;97243.16;;;9.30;40.47
76054;BME280;64752;48.870;9.082;2024-01-16T12:15:43;97242.97;;;9.55;37.66
76054;BME280;64752;48.870;9.082;2024-01-16T12:18:08;97235.63;;;9.64;38.21
76054;BME280;64752;48.870;9.082;2024-01-16T12:20:36;97239.00;;;11.33;36.39
76054;BME280;64752;48.870;9.082;2024-01-16T12:23:06;97234.81;;;11.13;34.09
76054;BME280;64752;48.870;9.082;2024-01-16T12:25:33;97221.75;;;10.79;35.92
76054;BME280;64752;48.870;9.082;2024-01-16T12:28:01;97212.97;;;10.82;36.48
76054;BME280;64752;48.870;9.082;2024-01-16T12:30:27;97207.22;;;9.03;38.21
76054;BME280;64752;48.870;9.082;2024-01-16T12:33:13;97202.81;;;8.64;39.75
76054;BME280;64752;48.870;9.082;2024-01-16T12:35:42;97211.13;;;8.26;40.03
76054;BME280;64752;48.870;9.082;2024-01-16T12:38:09;97204.44;;;9.07;39.36
76054;BME280;64752;48.870;9.082;2024-01-16T12:40:35;97199.19;;;8.88;38.93
76054;BME280;64752;48.870;9.082;2024-01-16T12:43:02;97207.78;;;8.89;38.67
76054;BME280;64752;48.870;9.082;2024-01-16T12:45:28;97204.91;;;8.54;39.08
76054;BME280;64752;48.870;9.082;2024-01-16T12:47:54;97205.88;;;8.94;38.95
76054;BME280;64752;48.870;9.082;2024-01-16T12:50:24;97204.97;;;7.85;41.19
76054;BME280;64752;48.870;9.082;2024-01-16T12:52:51;97205.38;;;9.46;38.81
76054;BME280;64752;48.870;9.082;2024-01-16T12:55:25;97202.19;;;8.57;39.88
76054;BME280;64752;48.870;9.082;2024-01-16T12:58:20;97206.56;;;7.87;39.85
76054;BME280;64752;48.870;9.082;2024-01-16T13:00:47;97202.38;;;8.53;38.83
76054;BME280;64752;48.870;9.082;2024-01-16T13:03:26;97198.16;;;8.72;39.31
76054;BME280;64752;48.870;9.082;2024-01-16T13:05:56;97189.25;;;7.67;40.75
76054;BME280;64752;48.870;9.082;2024-01-16T13:08:22;97195.31;;;8.78;39.41